sensor_id;sensor_type;location;lat;lon;timestamp;P1;durP1;ratioP1;P2;durP2;ratioP2
35364;SDS011;21464;48.112;11.530;2022-11-10T00:01:45;3.67;;;2.90;;
35364;SDS011;21464;48.112;11.530;2022-11-10T00:04:30;3.50;;;2.92;;
35364;SDS011;21464;48.112;11.530;2022-11-10T00:07:14;3.00;;;2.80;;
35364;SDS011;21464;48.112;11.530;2022-11-10T00:09:58;3.05;;;2.75;;
35364;SDS011;21464;48.112;11.530;2022-11-10T00:12:43;3.00;;;2.42;;
35364;SDS011;21464;48.112;11.530;2022-11-10T00:15:28;2.60;;;2.40;;
35364;SDS011;21464;48.112;11.530;2022-11-10T00:18:31;2.53;;;2.42;;
35364;SDS011;21464;48.112;11.530;2022-11-10T00:21:16;3.55;;;2.45;;
35364;SDS011;21464;48.112;11.530;2022-11-10T00:24:01;2.67;;;2.47;;
35364;SDS011;21464;48.112;11.530;2022-11-10T00:26:46;2.63;;;2.42;;
35364;SDS011;21464;48.112;11.530;2022-11-10T00:29:31;2.30;;;2.10;;
35364;SDS011;21464;48.112;11.530;2022-11-10T00:32:15;2.10;;;2.00;;
35364;SDS011;21464;48.112;11.530;2022-11-10T00:34:59;2.08;;;1.98;;
35364;SDS011;21464;48.112;11.530;2022-11-10T00:37:44;2.22;;;2.03;;
35364;SDS011;21464;48.112;11.530;2022-11-10T00:40:28;2.15;;;2.00;;
35364;SDS011;21464;48.112;11.530;2022-11-10T00:43:12;2.00;;;1.90;;
35364;SDS011;21464;48.112;11.530;2022-11-10T00:45:56;2.33;;;2.22;;
35364;SDS011;21464;48.112;11.530;2022-11-10T00:48:41;2.15;;;1.95;;
35364;SDS011;21464;48.112;11.530;2022-11-10T00:51:27;1.75;;;1.65;;
35364;SDS011;21464;48.112;11.530;2022-11-10T00:54:11;1.70;;;1.60;;
35364;SDS011;21464;48.112;11.530;2022-11-10T00:56:56;1.65;;;1.55;;
35364;SDS011;21464;48.112;11.530;2022-11-10T00:59:40;1.67;;;1.45;;
35364;SDS011;21464;48.112;11.530;2022-11-10T01:02:25;1.23;;;1.15;;
35364;SDS011;21464;48.112;11.530;2022-11-10T01:05:09;1.40;;;1.30;;
35364;SDS011;21464;48.112;11.530;2022-11-10T01:07:53;1.40;;;1.38;;
35364;SDS011;21464;48.112;11.530;2022-11-10T01:10:37;1.20;;;1.20;;
35364;SDS011;21464;48.112;11.530;2022-11-10T01:13:22;1.42;;;1.33;;
35364;SDS011;21464;48.112;11.530;2022-11-10T01:16:09;1.40;;;1.30;;
35364;SDS011;21464;48.112;11.530;2022-11-10T01:18:55;1.33;;;1.17;;
35364;SDS011;21464;48.112;11.530;2022-11-10T01:21:40;1.05;;;1.05;;
35364;SDS011;21464;48.112;11.530;2022-11-10T01:24:24;1.05;;;1.05;;
35364;SDS011;21464;48.112;11.530;2022-11-10T01:27:09;1.08;;;0.93;;
35364;SDS011;21464;48.112;11.530;2022-11-10T01:29:53;1.17;;;0.98;;
35364;SDS011;21464;48.112;11.530;2022-11-10T01:32:38;1.08;;;1.08;;
35364;SDS011;21464;48.112;11.530;2022-11-10T01:35:22;1.00;;;1.00;;
35364;SDS011;21464;48.112;11.530;2022-11-10T01:38:07;0.60;;;0.60;;
35364;SDS011;21464;48.112;11.530;2022-11-10T01:40:51;1.00;;;1.00;;
35364;SDS011;21464;48.112;11.530;2022-11-10T01:43:35;0.90;;;0.90;;
35364;SDS011;21464;48.112;11.530;2022-11-10T01:46:20;1.17;;;0.80;;
35364;SDS011;21464;48.112;11.530;2022-11-10T01:49:04;1.15;;;0.82;;
35364;SDS011;21464;48.112;11.530;2022-11-10T01:51:56;0.80;;;0.80;;
35364;SDS011;21464;48.112;11.530;2022-11-10T01:54:45;0.85;;;0.85;;
35364;SDS011;21464;48.112;11.530;2022-11-10T01:57:30;1.40;;;1.13;;
35364;SDS011;21464;48.112;11.530;2022-11-10T02:00:15;1.88;;;1.05;;
35364;SDS011;21464;48.112;11.530;2022-11-10T02:05:51;1.02;;;0.90;;
35364;SDS011;21464;48.112;11.530;2022-11-10T02:08:36;0.90;;;0.90;;
35364;SDS011;21464;48.112;11.530;2022-11-10T02:11:21;0.80;;;0.80;;
35364;SDS011;21464;48.112;11.530;2022-11-10T02:14:06;1.27;;;0.70;;
35364;SDS011;21464;48.112;11.530;2022-11-10T02:16:50;0.80;;;0.80;;
35364;SDS011;21464;48.112;11.530;2022-11-10T02:19:39;0.70;;;0.70;;
35364;SDS011;21464;48.112;11.530;2022-11-10T02:22:24;0.70;;;0.70;;
35364;SDS011;21464;48.112;11.530;2022-11-10T02:25:09;1.05;;;1.00;;
35364;SDS011;21464;48.112;11.530;2022-11-10T02:27:54;0.80;;;0.80;;
35364;SDS011;21464;48.112;11.530;2022-11-10T02:30:38;0.95;;;0.90;;
35364;SDS011;21464;48.112;11.530;2022-11-10T02:33:23;0.80;;;0.80;;
35364;SDS011;21464;48.112;11.530;2022-11-10T02:36:07;0.90;;;0.90;;
35364;SDS011;21464;48.112;11.530;2022-11-10T02:38:52;0.70;;;0.70;;
35364;SDS011;21464;48.112;11.530;2022-11-10T02:41:37;0.63;;;0.63;;
35364;SDS011;21464;48.112;11.530;2022-11-10T02:44:21;0.50;;;0.50;;
35364;SDS011;21464;48.112;11.530;2022-11-10T02:47:05;0.73;;;0.73;;
35364;SDS011;21464;48.112;11.530;2022-11-10T02:49:50;0.80;;;0.80;;
35364;SDS011;21464;48.112;11.530;2022-11-10T02:52:35;1.05;;;0.60;;
35364;SDS011;21464;48.112;11.530;2022-11-10T02:55:19;1.00;;;0.90;;
35364;SDS011;21464;48.112;11.530;2022-11-10T02:58:04;0.88;;;0.88;;
35364;SDS011;21464;48.112;11.530;2022-11-10T03:00:48;0.90;;;0.90;;
35364;SDS011;21464;48.112;11.530;2022-11-10T03:03:33;0.98;;;0.88;;
35364;SDS011;21464;48.112;11.530;2022-11-10T03:06:17;1.80;;;1.70;;
35364;SDS011;21464;48.112;11.530;2022-11-10T03:09:02;1.33;;;1.23;;
35364;SDS011;21464;48.112;11.530;2022-11-10T03:11:47;1.25;;;1.25;;
35364;SDS011;21464;48.112;11.530;2022-11-10T03:14:31;1.50;;;1.10;;
35364;SDS011;21464;48.112;11.530;2022-11-10T03:17:16;1.02;;;0.90;;
35364;SDS011;21464;48.112;11.530;2022-11-10T03:20:00;2.40;;;1.67;;
35364;SDS011;21464;48.112;11.530;2022-11-10T03:22:45;1.83;;;1.70;;
35364;SDS011;21464;48.112;11.530;2022-11-10T03:25:29;2.00;;;1.67;;
35364;SDS011;21464;48.112;11.530;2022-11-10T03:28:14;3.28;;;1.70;;
35364;SDS011;21464;48.112;11.530;2022-11-10T03:30:59;4.95;;;1.80;;
35364;SDS011;21464;48.112;11.530;2022-11-10T03:33:43;2.65;;;1.98;;
35364;SDS011;21464;48.112;11.530;2022-11-10T03:36:27;3.35;;;1.83;;
35364;SDS011;21464;48.112;11.530;2022-11-10T03:39:11;2.87;;;1.83;;
35364;SDS011;21464;48.112;11.530;2022-11-10T03:41:56;3.17;;;1.77;;
35364;SDS011;21464;48.112;11.530;2022-11-10T03:44:41;2.08;;;1.65;;
35364;SDS011;21464;48.112;11.530;2022-11-10T03:47:26;3.72;;;2.13;;
35364;SDS011;21464;48.112;11.530;2022-11-10T03:50:11;2.20;;;2.00;;
35364;SDS011;21464;48.112;11.530;2022-11-10T03:52:55;2.60;;;2.30;;
35364;SDS011;21464;48.112;11.530;2022-11-10T03:55:39;6.00;;;2.88;;
35364;SDS011;21464;48.112;11.530;2022-11-10T03:58:24;2.45;;;2.08;;
35364;SDS011;21464;48.112;11.530;2022-11-10T04:01:08;4.35;;;2.35;;
35364;SDS011;21464;48.112;11.530;2022-11-10T04:03:52;3.53;;;2.45;;
35364;SDS011;21464;48.112;11.530;2022-11-10T04:06:36;7.38;;;2.78;;
35364;SDS011;21464;48.112;11.530;2022-11-10T04:09:39;6.30;;;2.88;;
35364;SDS011;21464;48.112;11.530;2022-11-10T04:12:24;3.00;;;2.38;;
35364;SDS011;21464;48.112;11.530;2022-11-10T04:15:27;2.78;;;2.30;;
35364;SDS011;21464;48.112;11.530;2022-11-10T04:18:27;3.78;;;2.20;;
35364;SDS011;21464;48.112;11.530;2022-11-10T04:21:12;3.33;;;2.08;;
35364;SDS011;21464;48.112;11.530;2022-11-10T04:23:57;3.63;;;2.30;;
35364;SDS011;21464;48.112;11.530;2022-11-10T04:26:42;6.55;;;3.88;;
35364;SDS011;21464;48.112;11.530;2022-11-10T04:29:27;5.10;;;3.00;;
35364;SDS011;21464;48.112;11.530;2022-11-10T04:32:11;3.97;;;2.83;;
35364;SDS011;21464;48.112;11.530;2022-11-10T04:34:55;11.90;;;7.63;;
35364;SDS011;21464;48.112;11.530;2022-11-10T04:37:40;3.63;;;2.70;;
35364;SDS011;21464;48.112;11.530;2022-11-10T04:40:24;3.33;;;2.00;;
35364;SDS011;21464;48.112;11.530;2022-11-10T04:43:09;3.00;;;1.58;;
35364;SDS011;21464;48.112;11.530;2022-11-10T04:45:53;4.82;;;2.67;;
35364;SDS011;21464;48.112;11.530;2022-11-10T04:48:38;2.10;;;1.50;;
35364;SDS011;21464;48.112;11.530;2022-11-10T04:51:26;3.85;;;2.00;;
35364;SDS011;21464;48.112;11.530;2022-11-10T04:54:11;2.53;;;1.80;;
35364;SDS011;21464;48.112;11.530;2022-11-10T04:56:56;2.63;;;1.60;;
35364;SDS011;21464;48.112;11.530;2022-11-10T04:59:41;3.23;;;1.40;;
35364;SDS011;21464;48.112;11.530;2022-11-10T05:02:25;2.83;;;1.75;;
35364;SDS011;21464;48.112;11.530;2022-11-10T05:05:10;3.03;;;1.52;;
35364;SDS011;21464;48.112;11.530;2022-11-10T05:07:54;2.45;;;1.65;;
35364;SDS011;21464;48.112;11.530;2022-11-10T05:10:39;1.92;;;1.77;;
35364;SDS011;21464;48.112;11.530;2022-11-10T05:13:24;1.90;;;1.67;;
35364;SDS011;21464;48.112;11.530;2022-11-10T05:16:08;2.75;;;1.90;;
35364;SDS011;21464;48.112;11.530;2022-11-10T05:18:52;3.23;;;2.90;;
35364;SDS011;21464;48.112;11.530;2022-11-10T05:21:37;4.28;;;1.80;;
35364;SDS011;21464;48.112;11.530;2022-11-10T05:24:22;2.83;;;1.73;;
35364;SDS011;21464;48.112;11.530;2022-11-10T05:27:06;2.63;;;1.70;;
35364;SDS011;21464;48.112;11.530;2022-11-10T05:29:54;2.78;;;1.73;;
35364;SDS011;21464;48.112;11.530;2022-11-10T05:32:38;4.82;;;1.90;;
35364;SDS011;21464;48.112;11.530;2022-11-10T05:35:23;2.63;;;1.60;;
35364;SDS011;21464;48.112;11.530;2022-11-10T05:38:07;2.20;;;1.90;;
35364;SDS011;21464;48.112;11.530;2022-11-10T05:40:52;1.92;;;1.70;;
35364;SDS011;21464;48.112;11.530;2022-11-10T05:43:36;3.38;;;1.95;;
35364;SDS011;21464;48.112;11.530;2022-11-10T05:46:21;4.00;;;2.20;;
35364;SDS011;21464;48.112;11.530;2022-11-10T05:49:05;4.75;;;1.88;;
35364;SDS011;21464;48.112;11.530;2022-11-10T05:51:49;2.97;;;2.22;;
35364;SDS011;21464;48.112;11.530;2022-11-10T05:54:34;3.70;;;1.60;;
35364;SDS011;21464;48.112;11.530;2022-11-10T05:57:18;3.25;;;1.95;;
35364;SDS011;21464;48.112;11.530;2022-11-10T06:00:06;3.90;;;2.08;;
35364;SDS011;21464;48.112;11.530;2022-11-10T06:05:44;3.53;;;1.73;;
35364;SDS011;21464;48.112;11.530;2022-11-10T06:08:29;2.47;;;1.90;;
35364;SDS011;21464;48.112;11.530;2022-11-10T06:11:14;4.17;;;1.80;;
35364;SDS011;21464;48.112;11.530;2022-11-10T06:13:58;2.60;;;1.43;;
35364;SDS011;21464;48.112;11.530;2022-11-10T06:16:44;3.17;;;1.87;;
35364;SDS011;21464;48.112;11.530;2022-11-10T06:19:28;6.07;;;2.30;;
35364;SDS011;21464;48.112;11.530;2022-11-10T06:22:13;7.88;;;3.60;;
35364;SDS011;21464;48.112;11.530;2022-11-10T06:24:57;6.30;;;2.55;;
35364;SDS011;21464;48.112;11.530;2022-11-10T06:27:42;3.85;;;2.38;;
35364;SDS011;21464;48.112;11.530;2022-11-10T06:30:27;2.33;;;1.88;;
35364;SDS011;21464;48.112;11.530;2022-11-10T06:33:12;3.83;;;2.30;;
35364;SDS011;21464;48.112;11.530;2022-11-10T06:35:57;3.28;;;1.73;;
35364;SDS011;21464;48.112;11.530;2022-11-10T06:38:41;2.53;;;2.08;;
35364;SDS011;21464;48.112;11.530;2022-11-10T06:41:25;2.40;;;2.20;;
35364;SDS011;21464;48.112;11.530;2022-11-10T06:44:10;2.13;;;1.95;;
35364;SDS011;21464;48.112;11.530;2022-11-10T06:46:55;1.83;;;1.70;;
35364;SDS011;21464;48.112;11.530;2022-11-10T06:49:40;2.47;;;1.77;;
35364;SDS011;21464;48.112;11.530;2022-11-10T06:52:24;2.90;;;2.70;;
35364;SDS011;21464;48.112;11.530;2022-11-10T06:55:09;3.65;;;2.20;;
35364;SDS011;21464;48.112;11.530;2022-11-10T06:57:53;3.28;;;2.20;;
35364;SDS011;21464;48.112;11.530;2022-11-10T07:00:38;7.37;;;2.50;;
35364;SDS011;21464;48.112;11.530;2022-11-10T07:03:23;2.72;;;2.13;;
35364;SDS011;21464;48.112;11.530;2022-11-10T07:06:07;3.35;;;2.78;;
35364;SDS011;21464;48.112;11.530;2022-11-10T07:08:52;2.78;;;2.50;;
35364;SDS011;21464;48.112;11.530;2022-11-10T07:11:36;3.58;;;2.50;;
35364;SDS011;21464;48.112;11.530;2022-11-10T07:14:21;3.95;;;2.53;;
35364;SDS011;21464;48.112;11.530;2022-11-10T07:17:06;5.75;;;2.58;;
35364;SDS011;21464;48.112;11.530;2022-11-10T07:19:51;4.88;;;2.60;;
35364;SDS011;21464;48.112;11.530;2022-11-10T07:22:35;3.85;;;2.83;;
35364;SDS011;21464;48.112;11.530;2022-11-10T07:25:19;5.95;;;3.17;;
35364;SDS011;21464;48.112;11.530;2022-11-10T07:28:05;5.87;;;3.90;;
35364;SDS011;21464;48.112;11.530;2022-11-10T07:30:49;5.67;;;3.87;;
35364;SDS011;21464;48.112;11.530;2022-11-10T07:33:34;5.45;;;2.80;;
35364;SDS011;21464;48.112;11.530;2022-11-10T07:36:18;3.70;;;2.67;;
35364;SDS011;21464;48.112;11.530;2022-11-10T07:39:03;3.50;;;2.70;;
35364;SDS011;21464;48.112;11.530;2022-11-10T07:41:47;3.10;;;2.70;;
35364;SDS011;21464;48.112;11.530;2022-11-10T07:44:32;4.63;;;2.75;;
35364;SDS011;21464;48.112;11.530;2022-11-10T07:47:17;3.72;;;2.72;;
35364;SDS011;21464;48.112;11.530;2022-11-10T07:50:01;8.32;;;6.30;;
35364;SDS011;21464;48.112;11.530;2022-11-10T07:52:46;6.67;;;2.53;;
35364;SDS011;21464;48.112;11.530;2022-11-10T07:55:30;3.77;;;2.50;;
35364;SDS011;21464;48.112;11.530;2022-11-10T07:58:15;3.72;;;2.97;;
35364;SDS011;21464;48.112;11.530;2022-11-10T08:01:00;3.78;;;2.33;;
35364;SDS011;21464;48.112;11.530;2022-11-10T08:03:45;4.22;;;2.58;;
35364;SDS011;21464;48.112;11.530;2022-11-10T08:06:30;4.18;;;2.78;;
35364;SDS011;21464;48.112;11.530;2022-11-10T08:09:15;2.50;;;2.30;;
35364;SDS011;21464;48.112;11.530;2022-11-10T08:11:59;2.78;;;2.50;;
35364;SDS011;21464;48.112;11.530;2022-11-10T08:14:44;3.28;;;3.00;;
35364;SDS011;21464;48.112;11.530;2022-11-10T08:17:29;3.33;;;2.58;;
35364;SDS011;21464;48.112;11.530;2022-11-10T08:20:13;3.00;;;2.53;;
35364;SDS011;21464;48.112;11.530;2022-11-10T08:22:58;3.00;;;2.53;;
35364;SDS011;21464;48.112;11.530;2022-11-10T08:25:43;6.22;;;3.30;;
35364;SDS011;21464;48.112;11.530;2022-11-10T08:28:27;6.15;;;2.80;;
35364;SDS011;21464;48.112;11.530;2022-11-10T08:31:12;2.50;;;2.20;;
35364;SDS011;21464;48.112;11.530;2022-11-10T08:33:56;2.75;;;2.30;;
35364;SDS011;21464;48.112;11.530;2022-11-10T08:36:41;4.35;;;2.60;;
35364;SDS011;21464;48.112;11.530;2022-11-10T08:39:25;2.63;;;2.10;;
35364;SDS011;21464;48.112;11.530;2022-11-10T08:42:10;1.88;;;1.70;;
35364;SDS011;21464;48.112;11.530;2022-11-10T08:44:54;5.13;;;2.17;;
35364;SDS011;21464;48.112;11.530;2022-11-10T08:47:39;4.13;;;2.33;;
35364;SDS011;21464;48.112;11.530;2022-11-10T08:50:25;3.15;;;1.88;;
35364;SDS011;21464;48.112;11.530;2022-11-10T08:53:10;3.92;;;2.00;;
35364;SDS011;21464;48.112;11.530;2022-11-10T08:55:58;3.33;;;2.05;;
35364;SDS011;21464;48.112;11.530;2022-11-10T08:58:43;1.80;;;1.70;;
35364;SDS011;21464;48.112;11.530;2022-11-10T09:01:27;2.53;;;2.00;;
35364;SDS011;21464;48.112;11.530;2022-11-10T09:04:11;3.10;;;1.80;;
35364;SDS011;21464;48.112;11.530;2022-11-10T09:06:58;4.50;;;2.25;;
35364;SDS011;21464;48.112;11.530;2022-11-10T09:09:43;3.17;;;2.10;;
35364;SDS011;21464;48.112;11.530;2022-11-10T09:12:28;3.00;;;1.80;;
35364;SDS011;21464;48.112;11.530;2022-11-10T09:15:12;2.97;;;2.03;;
35364;SDS011;21464;48.112;11.530;2022-11-10T09:17:57;2.33;;;1.67;;
35364;SDS011;21464;48.112;11.530;2022-11-10T09:20:42;2.05;;;1.40;;
35364;SDS011;21464;48.112;11.530;2022-11-10T09:23:27;2.70;;;1.83;;
35364;SDS011;21464;48.112;11.530;2022-11-10T09:26:11;1.60;;;1.50;;
35364;SDS011;21464;48.112;11.530;2022-11-10T09:28:56;3.10;;;2.08;;
35364;SDS011;21464;48.112;11.530;2022-11-10T09:31:42;2.70;;;1.60;;
35364;SDS011;21464;48.112;11.530;2022-11-10T09:34:26;4.93;;;1.70;;
35364;SDS011;21464;48.112;11.530;2022-11-10T09:37:11;3.08;;;1.60;;
35364;SDS011;21464;48.112;11.530;2022-11-10T09:39:55;2.42;;;1.45;;
35364;SDS011;21464;48.112;11.530;2022-11-10T09:42:40;2.60;;;1.80;;
35364;SDS011;21464;48.112;11.530;2022-11-10T09:45:31;1.55;;;1.45;;
35364;SDS011;21464;48.112;11.530;2022-11-10T09:48:24;1.90;;;1.67;;
35364;SDS011;21464;48.112;11.530;2022-11-10T09:51:43;3.15;;;1.50;;
35364;SDS011;21464;48.112;11.530;2022-11-10T09:54:38;2.65;;;1.40;;
35364;SDS011;21464;48.112;11.530;2022-11-10T09:57:24;2.95;;;1.85;;
35364;SDS011;21464;48.112;11.530;2022-11-10T10:00:12;2.05;;;1.30;;
35364;SDS011;21464;48.112;11.530;2022-11-10T10:02:58;1.50;;;1.40;;
35364;SDS011;21464;48.112;11.530;2022-11-10T10:08:58;3.55;;;1.60;;
35364;SDS011;21464;48.112;11.530;2022-11-10T10:14:53;2.17;;;1.77;;
35364;SDS011;21464;48.112;11.530;2022-11-10T10:17:53;1.65;;;1.42;;
35364;SDS011;21464;48.112;11.530;2022-11-10T10:20:45;3.28;;;1.60;;
35364;SDS011;21464;48.112;11.530;2022-11-10T10:23:35;3.03;;;1.50;;
35364;SDS011;21464;48.112;11.530;2022-11-10T10:26:22;2.97;;;1.60;;
35364;SDS011;21464;48.112;11.530;2022-11-10T10:29:09;3.15;;;1.77;;
35364;SDS011;21464;48.112;11.530;2022-11-10T10:31:54;2.63;;;1.48;;
35364;SDS011;21464;48.112;11.530;2022-11-10T10:34:40;3.15;;;1.40;;
35364;SDS011;21464;48.112;11.530;2022-11-10T10:37:25;3.80;;;1.20;;
35364;SDS011;21464;48.112;11.530;2022-11-10T10:40:15;2.20;;;1.15;;
35364;SDS011;21464;48.112;11.530;2022-11-10T10:43:00;2.80;;;1.27;;
35364;SDS011;21464;48.112;11.530;2022-11-10T10:45:44;3.33;;;1.70;;
35364;SDS011;21464;48.112;11.530;2022-11-10T10:48:45;1.90;;;1.40;;
35364;SDS011;21464;48.112;11.530;2022-11-10T10:51:29;3.22;;;1.20;;
35364;SDS011;21464;48.112;11.530;2022-11-10T10:54:24;4.35;;;1.60;;
35364;SDS011;21464;48.112;11.530;2022-11-10T11:00:14;5.05;;;1.30;;
35364;SDS011;21464;48.112;11.530;2022-11-10T11:03:02;2.10;;;1.38;;
35364;SDS011;21464;48.112;11.530;2022-11-10T11:06:30;1.95;;;1.08;;
35364;SDS011;21464;48.112;11.530;2022-11-10T11:11:40;3.72;;;1.30;;
35364;SDS011;21464;48.112;11.530;2022-11-10T11:14:26;2.72;;;1.35;;
35364;SDS011;21464;48.112;11.530;2022-11-10T11:17:12;3.75;;;1.58;;
35364;SDS011;21464;48.112;11.530;2022-11-10T11:19:57;2.67;;;1.00;;
35364;SDS011;21464;48.112;11.530;2022-11-10T11:22:45;3.25;;;1.05;;
35364;SDS011;21464;48.112;11.530;2022-11-10T11:25:32;1.73;;;1.20;;
35364;SDS011;21464;48.112;11.530;2022-11-10T11:28:25;1.77;;;1.00;;
35364;SDS011;21464;48.112;11.530;2022-11-10T11:31:23;1.10;;;1.00;;
35364;SDS011;21464;48.112;11.530;2022-11-10T11:34:16;1.05;;;0.95;;
35364;SDS011;21464;48.112;11.530;2022-11-10T11:48:45;5.32;;;1.60;;
35364;SDS011;21464;48.112;11.530;2022-11-10T11:51:38;3.47;;;1.40;;
35364;SDS011;21464;48.112;11.530;2022-11-10T11:54:27;3.78;;;1.50;;
35364;SDS011;21464;48.112;11.530;2022-11-10T11:57:19;3.28;;;1.25;;
35364;SDS011;21464;48.112;11.530;2022-11-10T12:00:14;4.10;;;1.55;;
35364;SDS011;21464;48.112;11.530;2022-11-10T12:08:45;3.00;;;1.35;;
35364;SDS011;21464;48.112;11.530;2022-11-10T12:20:19;3.15;;;1.20;;
35364;SDS011;21464;48.112;11.530;2022-11-10T12:28:46;2.15;;;1.30;;
35364;SDS011;21464;48.112;11.530;2022-11-10T12:31:33;1.92;;;0.80;;
35364;SDS011;21464;48.112;11.530;2022-11-10T12:40:17;1.38;;;1.02;;
35364;SDS011;21464;48.112;11.530;2022-11-10T12:43:04;1.30;;;1.02;;
35364;SDS011;21464;48.112;11.530;2022-11-10T12:45:53;2.08;;;1.05;;
35364;SDS011;21464;48.112;11.530;2022-11-10T12:54:44;1.95;;;0.95;;
35364;SDS011;21464;48.112;11.530;2022-11-10T12:57:29;2.08;;;1.10;;
35364;SDS011;21464;48.112;11.530;2022-11-10T13:00:25;1.05;;;0.90;;
35364;SDS011;21464;48.112;11.530;2022-11-10T13:03:29;4.18;;;0.82;;
35364;SDS011;21464;48.112;11.530;2022-11-10T13:09:24;1.80;;;1.00;;
35364;SDS011;21464;48.112;11.530;2022-11-10T13:12:23;1.90;;;1.20;;
35364;SDS011;21464;48.112;11.530;2022-11-10T13:21:16;2.30;;;0.95;;
35364;SDS011;21464;48.112;11.530;2022-11-10T13:26:47;1.13;;;1.05;;
35364;SDS011;21464;48.112;11.530;2022-11-10T13:29:33;3.42;;;1.35;;
35364;SDS011;21464;48.112;11.530;2022-11-10T13:32:23;2.28;;;1.40;;
35364;SDS011;21464;48.112;11.530;2022-11-10T13:38:18;2.67;;;1.80;;
35364;SDS011;21464;48.112;11.530;2022-11-10T13:43:59;2.38;;;1.20;;
35364;SDS011;21464;48.112;11.530;2022-11-10T13:46:53;2.50;;;1.02;;
35364;SDS011;21464;48.112;11.530;2022-11-10T13:52:50;1.95;;;1.02;;
35364;SDS011;21464;48.112;11.530;2022-11-10T13:58:23;2.70;;;1.33;;
35364;SDS011;21464;48.112;11.530;2022-11-10T14:04:00;2.70;;;1.63;;
35364;SDS011;21464;48.112;11.530;2022-11-10T14:06:49;4.78;;;2.15;;
35364;SDS011;21464;48.112;11.530;2022-11-10T14:09:37;1.75;;;0.93;;
35364;SDS011;21464;48.112;11.530;2022-11-10T14:15:15;2.67;;;1.58;;
35364;SDS011;21464;48.112;11.530;2022-11-10T14:18:01;3.55;;;1.00;;
35364;SDS011;21464;48.112;11.530;2022-11-10T14:20:46;3.30;;;1.20;;
35364;SDS011;21464;48.112;11.530;2022-11-10T14:23:46;1.23;;;0.80;;
35364;SDS011;21464;48.112;11.530;2022-11-10T14:26:43;3.85;;;1.50;;
35364;SDS011;21464;48.112;11.530;2022-11-10T14:29:34;3.17;;;0.82;;
35364;SDS011;21464;48.112;11.530;2022-11-10T14:32:21;2.30;;;1.27;;
35364;SDS011;21464;48.112;11.530;2022-11-10T14:35:21;4.47;;;1.60;;
35364;SDS011;21464;48.112;11.530;2022-11-10T14:38:12;6.10;;;3.10;;
35364;SDS011;21464;48.112;11.530;2022-11-10T14:41:00;6.55;;;2.10;;
35364;SDS011;21464;48.112;11.530;2022-11-10T14:44:04;2.80;;;1.20;;
35364;SDS011;21464;48.112;11.530;2022-11-10T14:46:49;2.25;;;1.67;;
35364;SDS011;21464;48.112;11.530;2022-11-10T14:49:34;2.95;;;1.20;;
35364;SDS011;21464;48.112;11.530;2022-11-10T14:52:18;4.07;;;1.50;;
35364;SDS011;21464;48.112;11.530;2022-11-10T14:55:08;1.65;;;1.27;;
35364;SDS011;21464;48.112;11.530;2022-11-10T14:58:16;1.23;;;1.13;;
35364;SDS011;21464;48.112;11.530;2022-11-10T15:01:00;1.92;;;1.00;;
35364;SDS011;21464;48.112;11.530;2022-11-10T15:03:45;1.48;;;0.90;;
35364;SDS011;21464;48.112;11.530;2022-11-10T15:06:30;1.67;;;1.00;;
35364;SDS011;21464;48.112;11.530;2022-11-10T15:09:20;2.25;;;1.08;;
35364;SDS011;21464;48.112;11.530;2022-11-10T15:12:06;2.28;;;1.30;;
35364;SDS011;21464;48.112;11.530;2022-11-10T15:14:58;3.28;;;1.15;;
35364;SDS011;21464;48.112;11.530;2022-11-10T15:17:49;3.67;;;1.33;;
35364;SDS011;21464;48.112;11.530;2022-11-10T15:20:38;3.20;;;1.20;;
35364;SDS011;21464;48.112;11.530;2022-11-10T15:23:25;1.30;;;0.98;;
35364;SDS011;21464;48.112;11.530;2022-11-10T15:26:17;3.10;;;1.00;;
35364;SDS011;21464;48.112;11.530;2022-11-10T15:29:02;2.72;;;0.95;;
35364;SDS011;21464;48.112;11.530;2022-11-10T15:31:47;2.78;;;1.20;;
35364;SDS011;21464;48.112;11.530;2022-11-10T15:34:50;1.35;;;1.10;;
35364;SDS011;21464;48.112;11.530;2022-11-10T15:37:36;1.50;;;1.40;;
35364;SDS011;21464;48.112;11.530;2022-11-10T15:40:31;1.65;;;1.45;;
35364;SDS011;21464;48.112;11.530;2022-11-10T15:46:13;3.80;;;1.42;;
35364;SDS011;21464;48.112;11.530;2022-11-10T15:48:58;3.63;;;1.17;;
35364;SDS011;21464;48.112;11.530;2022-11-10T15:51:42;1.27;;;1.17;;
35364;SDS011;21464;48.112;11.530;2022-11-10T15:54:28;2.97;;;1.10;;
35364;SDS011;21464;48.112;11.530;2022-11-10T15:57:13;2.45;;;1.40;;
35364;SDS011;21464;48.112;11.530;2022-11-10T15:59:58;4.53;;;1.30;;
35364;SDS011;21464;48.112;11.530;2022-11-10T16:02:43;1.90;;;1.40;;
35364;SDS011;21464;48.112;11.530;2022-11-10T16:05:27;3.65;;;1.50;;
35364;SDS011;21464;48.112;11.530;2022-11-10T16:08:12;1.65;;;1.50;;
35364;SDS011;21464;48.112;11.530;2022-11-10T16:10:57;3.15;;;1.70;;
35364;SDS011;21464;48.112;11.530;2022-11-10T16:13:42;3.25;;;1.55;;
35364;SDS011;21464;48.112;11.530;2022-11-10T16:16:26;3.85;;;1.65;;
35364;SDS011;21464;48.112;11.530;2022-11-10T16:19:11;2.55;;;1.67;;
35364;SDS011;21464;48.112;11.530;2022-11-10T16:21:56;5.43;;;3.63;;
35364;SDS011;21464;48.112;11.530;2022-11-10T16:24:40;5.78;;;2.58;;
35364;SDS011;21464;48.112;11.530;2022-11-10T16:27:25;5.70;;;2.28;;
35364;SDS011;21464;48.112;11.530;2022-11-10T16:30:12;6.07;;;2.67;;
35364;SDS011;21464;48.112;11.530;2022-11-10T16:32:57;7.20;;;2.78;;
35364;SDS011;21464;48.112;11.530;2022-11-10T16:35:42;6.13;;;3.15;;
35364;SDS011;21464;48.112;11.530;2022-11-10T16:38:27;4.53;;;2.97;;
35364;SDS011;21464;48.112;11.530;2022-11-10T16:41:12;7.03;;;3.85;;
35364;SDS011;21464;48.112;11.530;2022-11-10T16:44:00;4.68;;;2.83;;
35364;SDS011;21464;48.112;11.530;2022-11-10T16:46:45;4.47;;;3.00;;
35364;SDS011;21464;48.112;11.530;2022-11-10T16:49:31;4.93;;;2.90;;
35364;SDS011;21464;48.112;11.530;2022-11-10T16:52:17;8.32;;;3.22;;
35364;SDS011;21464;48.112;11.530;2022-11-10T16:55:02;4.40;;;2.83;;
35364;SDS011;21464;48.112;11.530;2022-11-10T16:57:47;4.50;;;2.90;;
35364;SDS011;21464;48.112;11.530;2022-11-10T17:00:32;4.53;;;2.67;;
35364;SDS011;21464;48.112;11.530;2022-11-10T17:03:19;5.22;;;2.60;;
35364;SDS011;21464;48.112;11.530;2022-11-10T17:06:04;3.75;;;3.13;;
35364;SDS011;21464;48.112;11.530;2022-11-10T17:08:49;4.32;;;3.45;;
35364;SDS011;21464;48.112;11.530;2022-11-10T17:11:35;6.68;;;3.13;;
35364;SDS011;21464;48.112;11.530;2022-11-10T17:14:19;3.40;;;2.95;;
35364;SDS011;21464;48.112;11.530;2022-11-10T17:17:06;4.50;;;3.22;;
35364;SDS011;21464;48.112;11.530;2022-11-10T17:19:51;6.15;;;3.75;;
35364;SDS011;21464;48.112;11.530;2022-11-10T17:22:36;4.65;;;3.58;;
35364;SDS011;21464;48.112;11.530;2022-11-10T17:25:25;5.18;;;3.33;;
35364;SDS011;21464;48.112;11.530;2022-11-10T17:28:11;4.45;;;3.45;;
35364;SDS011;21464;48.112;11.530;2022-11-10T17:30:56;9.13;;;4.45;;
35364;SDS011;21464;48.112;11.530;2022-11-10T17:33:41;7.22;;;4.90;;
35364;SDS011;21464;48.112;11.530;2022-11-10T17:36:25;12.85;;;7.55;;
35364;SDS011;21464;48.112;11.530;2022-11-10T17:39:11;9.38;;;4.68;;
35364;SDS011;21464;48.112;11.530;2022-11-10T17:41:57;10.30;;;4.55;;
35364;SDS011;21464;48.112;11.530;2022-11-10T17:44:42;8.73;;;5.07;;
35364;SDS011;21464;48.112;11.530;2022-11-10T17:47:26;10.90;;;6.03;;
35364;SDS011;21464;48.112;11.530;2022-11-10T17:50:11;8.95;;;5.88;;
35364;SDS011;21464;48.112;11.530;2022-11-10T17:52:55;8.48;;;5.43;;
35364;SDS011;21464;48.112;11.530;2022-11-10T17:55:40;11.93;;;5.22;;
35364;SDS011;21464;48.112;11.530;2022-11-10T17:58:25;8.13;;;5.78;;
35364;SDS011;21464;48.112;11.530;2022-11-10T18:01:16;8.77;;;5.63;;